createdAt,value
2018-07-09T00:00:55.802Z,66.67
2018-07-09T00:01:55.985Z,66.77
2018-07-09T00:02:56.123Z,66.58
2018-07-09T00:03:56.312Z,66.49
2018-07-09T00:04:56.494Z,66.39
2018-07-09T00:05:56.663Z,66.77
2018-07-09T00:06:56.844Z,66.58
2018-07-09T00:07:57.026Z,66.49
2018-07-09T00:08:57.216Z,66.86
2018-07-09T00:09:57.385Z,66.86
2018-07-09T00:10:57.564Z,67.44
2018-07-09T00:11:57.748Z,67.35
2018-07-09T00:12:57.922Z,67.16
2018-07-09T00:13:58.096Z,67.54
2018-07-09T00:14:58.279Z,67.44
2018-07-09T00:15:58.460Z,67.44
2018-07-09T00:16:58.643Z,67.25
2018-07-09T00:17:58.829Z,66.58
2018-07-09T00:18:59.006Z,67.06
2018-07-09T00:19:59.180Z,67.44
2018-07-09T00:20:59.343Z,67.63
2018-07-09T00:21:59.537Z,67.54
2018-07-09T00:22:59.710Z,67.73
2018-07-09T00:23:59.885Z,67.54
2018-07-09T00:25:00.067Z,67.73
2018-07-09T00:26:00.234Z,68.18
2018-07-09T00:27:00.406Z,67.99
2018-07-09T00:28:00.578Z,68.18
2018-07-09T00:29:01.057Z,68.56
2018-07-09T00:30:00.941Z,68.95
2018-07-09T00:31:01.129Z,68.75
2018-07-09T00:32:01.301Z,68.75
2018-07-09T00:33:01.490Z,68.40
2018-07-09T00:34:01.656Z,67.89
2018-07-09T00:35:01.821Z,68.12
2018-07-09T00:36:01.990Z,68.85
2018-07-09T00:37:02.159Z,69.04
2018-07-09T00:38:02.331Z,68.85
2018-07-09T00:39:02.516Z,68.75
2018-07-09T00:40:02.682Z,68.37
2018-07-09T00:41:02.875Z,68.08
2018-07-09T00:43:03.223Z,68.18
2018-07-09T00:44:03.406Z,68.85
2018-07-09T00:45:03.587Z,68.85
2018-07-09T00:46:03.768Z,68.75
2018-07-09T00:47:03.952Z,69.52
2018-07-09T00:48:04.126Z,69.04
2018-07-09T00:49:04.315Z,69.42
2018-07-09T00:50:04.493Z,69.10
2018-07-09T00:51:04.830Z,69.58
2018-07-09T00:52:04.910Z,69.29
2018-07-09T00:53:05.031Z,69.58
2018-07-09T00:54:05.200Z,70.06
2018-07-09T00:55:05.377Z,69.68
2018-07-09T00:56:05.539Z,69.87
2018-07-09T00:57:05.710Z,69.58
2018-07-09T00:58:05.885Z,70.44
2018-07-09T00:59:06.059Z,70.44
2018-07-09T01:00:06.253Z,70.35
2018-07-09T01:01:06.415Z,70.92
2018-07-09T01:02:06.580Z,71.08
2018-07-09T01:03:06.751Z,71.84
2018-07-09T01:04:06.907Z,71.66
2018-07-09T01:05:07.085Z,71.94
2018-07-09T01:06:07.245Z,71.78
2018-07-09T01:07:07.447Z,71.78
2018-07-09T01:08:07.627Z,71.56
2018-07-09T01:09:07.794Z,71.27
2018-07-09T01:10:07.980Z,71.08
2018-07-09T01:11:08.218Z,71.31
2018-07-09T01:12:08.343Z,70.89
2018-07-09T01:13:08.536Z,71.56
2018-07-09T01:14:08.706Z,71.66
2018-07-09T01:15:08.887Z,71.46
2018-07-09T01:16:09.068Z,71.46
2018-07-09T01:17:09.241Z,71.69
2018-07-09T01:18:09.404Z,70.89
2018-07-09T01:19:09.588Z,71.02
2018-07-09T01:20:09.754Z,71.27
2018-07-09T01:21:09.926Z,71.11
2018-07-09T01:22:10.104Z,71.11
2018-07-09T01:23:10.268Z,70.83
2018-07-09T01:24:10.448Z,71.31
2018-07-09T01:25:10.617Z,71.27
2018-07-09T01:26:10.797Z,71.17
2018-07-09T01:27:10.987Z,71.46
2018-07-09T01:28:11.144Z,71.46
2018-07-09T01:29:11.323Z,72.13
2018-07-09T01:30:11.502Z,71.75
2018-07-09T01:31:11.665Z,71.84
2018-07-09T01:32:11.844Z,71.75
2018-07-09T01:33:12.023Z,71.75
2018-07-09T01:34:12.177Z,71.56
2018-07-09T01:35:12.364Z,72.23
2018-07-09T01:36:12.535Z,72.03
2018-07-09T01:37:12.711Z,71.84
2018-07-09T01:38:12.900Z,71.84
2018-07-09T01:39:13.081Z,71.94
2018-07-09T01:40:13.235Z,72.42
2018-07-09T01:41:13.407Z,72.61
2018-07-09T01:42:13.573Z,72.23
2018-07-09T01:43:13.744Z,72.90
2018-07-09T01:44:13.930Z,73.57
2018-07-09T01:45:14.103Z,73.63
2018-07-09T01:46:14.278Z,74.40
2018-07-09T01:47:14.452Z,75.35
2018-07-09T01:48:14.638Z,74.68
2018-07-09T01:49:14.820Z,74.93
2018-07-09T01:50:14.988Z,75.35
2018-07-09T01:51:15.156Z,75.07
2018-07-09T01:52:15.326Z,74.87
2018-07-09T01:53:15.500Z,74.87
2018-07-09T01:54:15.694Z,74.58
2018-07-09T01:55:15.859Z,75.02
2018-07-09T01:56:16.016Z,75.35
2018-07-09T01:57:16.197Z,74.68
2018-07-09T01:58:16.387Z,75.26
2018-07-09T01:59:16.570Z,75.35
2018-07-09T02:00:16.742Z,75.07
2018-07-09T02:01:16.913Z,75.16
2018-07-09T02:02:17.089Z,75.26
2018-07-09T02:03:17.261Z,75.35
2018-07-09T02:04:17.431Z,74.97
2018-07-09T02:05:17.611Z,75.54
2018-07-09T02:06:17.794Z,75.12
2018-07-09T02:07:17.969Z,74.84
2018-07-09T02:08:18.147Z,74.77
2018-07-09T02:09:18.332Z,75.35
2018-07-09T02:10:18.519Z,75.70
2018-07-09T02:11:18.688Z,75.89
2018-07-09T02:12:18.862Z,75.45
2018-07-09T02:13:19.033Z,75.41
2018-07-09T02:14:19.198Z,75.16
2018-07-09T02:15:19.394Z,75.35
2018-07-09T02:16:19.584Z,75.60
2018-07-09T02:17:19.741Z,75.22
2018-07-09T02:18:19.916Z,75.31
2018-07-09T02:19:20.101Z,75.60
2018-07-09T02:20:20.271Z,75.12
2018-07-09T02:21:20.443Z,75.22
2018-07-09T02:22:20.622Z,75.41
2018-07-09T02:23:20.797Z,75.60
2018-07-09T02:24:20.985Z,75.98
2018-07-09T02:25:21.167Z,76.08
2018-07-09T02:26:21.341Z,75.70
2018-07-09T02:27:21.521Z,75.79
2018-07-09T02:28:21.697Z,75.79
2018-07-09T02:29:21.869Z,75.89
2018-07-09T02:30:22.028Z,75.89
2018-07-09T02:31:22.190Z,76.27
2018-07-09T02:32:22.357Z,75.89
2018-07-09T02:33:22.522Z,75.79
2018-07-09T02:34:22.707Z,75.31
2018-07-09T02:35:22.872Z,75.12
2018-07-09T02:36:23.049Z,75.51
2018-07-09T02:37:23.232Z,75.12
2018-07-09T02:38:23.402Z,76.18
2018-07-09T02:39:23.586Z,75.98
2018-07-09T02:40:23.764Z,75.98
2018-07-09T02:41:23.943Z,76.27
2018-07-09T02:42:24.125Z,76.56
2018-07-09T02:43:24.303Z,76.65
2018-07-09T02:44:24.478Z,76.56
2018-07-09T02:45:24.668Z,76.56
2018-07-09T02:46:24.866Z,77.09
2018-07-09T02:47:25.017Z,77.48
2018-07-09T02:48:25.207Z,77.95
2018-07-09T02:49:25.389Z,77.48
2018-07-09T02:50:25.568Z,77.57
2018-07-09T02:51:25.755Z,77.28
2018-07-09T02:52:25.927Z,77.04
2018-07-09T02:53:26.103Z,76.84
2018-07-09T02:54:26.274Z,76.37
2018-07-09T02:55:26.460Z,76.46
2018-07-09T02:56:26.657Z,77.04
2018-07-09T02:57:26.833Z,77.13
2018-07-09T02:58:27.006Z,76.65
2018-07-09T02:59:27.184Z,76.46
2018-07-09T03:00:27.365Z,76.37
2018-07-09T03:01:27.554Z,76.46
2018-07-09T03:02:27.729Z,76.75
2018-07-09T03:03:27.901Z,77.04
2018-07-09T03:04:28.070Z,76.65
2018-07-09T03:05:28.251Z,76.37
2018-07-09T03:06:28.431Z,76.18
2018-07-09T03:07:28.615Z,76.94
2018-07-09T03:08:28.792Z,76.46
2018-07-09T03:09:28.975Z,76.75
2018-07-09T03:10:29.152Z,76.75
2018-07-09T03:11:29.334Z,76.94
2018-07-09T03:12:29.526Z,77.48
2018-07-09T03:13:29.700Z,77.57
2018-07-09T03:14:29.862Z,78.34
2018-07-09T03:15:30.047Z,78.24
2018-07-09T03:16:30.204Z,77.76
2018-07-09T03:17:30.390Z,77.67
2018-07-09T03:18:30.551Z,77.19
2018-07-09T03:19:30.745Z,77.42
2018-07-09T03:20:30.903Z,77.48
2018-07-09T03:21:31.087Z,77.28
2018-07-09T03:22:31.259Z,77.95
2018-07-09T03:23:31.438Z,77.95
2018-07-09T03:24:31.627Z,77.86
2018-07-09T03:25:31.795Z,77.76
2018-07-09T03:26:31.961Z,78.24
2018-07-09T03:27:32.157Z,77.76
2018-07-09T03:28:32.328Z,77.67
2018-07-09T03:29:32.503Z,77.57
2018-07-09T03:30:32.678Z,77.67
2018-07-09T03:31:32.859Z,77.57
2018-07-09T03:32:33.037Z,79.96
2018-07-09T03:33:33.215Z,81.11
2018-07-09T03:34:33.617Z,81.02
2018-07-09T03:35:33.561Z,81.21
2018-07-09T03:36:33.749Z,81.40
2018-07-09T03:37:33.902Z,81.49
2018-07-09T03:38:34.072Z,81.59
2018-07-09T03:39:34.245Z,81.30
2018-07-09T03:40:34.430Z,81.49
2018-07-09T03:41:34.602Z,81.02
2018-07-09T03:42:34.762Z,81.21
2018-07-09T03:43:34.971Z,81.49
2018-07-09T03:44:35.134Z,81.88
2018-07-09T03:45:35.313Z,82.31
2018-07-09T03:46:35.487Z,82.45
2018-07-09T03:47:35.671Z,81.97
2018-07-09T03:48:35.846Z,81.88
2018-07-09T03:49:36.035Z,81.40
2018-07-09T03:50:36.203Z,80.92
2018-07-09T03:51:36.371Z,80.73
2018-07-09T03:52:36.551Z,80.54
2018-07-09T03:53:37.151Z,80.48
2018-07-09T03:54:36.942Z,79.58
2018-07-09T03:55:37.115Z,79.81
2018-07-09T03:56:37.295Z,79.14
2018-07-09T03:57:37.474Z,78.47
2018-07-09T03:58:37.647Z,79.33
2018-07-09T03:59:37.824Z,78.57
2018-07-09T04:00:38.007Z,78.19
2018-07-09T04:01:38.169Z,78.66
2018-07-09T04:02:38.373Z,78.38
2018-07-09T04:03:38.562Z,78.19
2018-07-09T04:04:38.729Z,78.28
2018-07-09T04:05:38.905Z,78.19
2018-07-09T04:06:39.076Z,78.09
2018-07-09T04:07:39.263Z,78.19
2018-07-09T04:08:39.443Z,78.38
2018-07-09T04:09:39.627Z,78.38
2018-07-09T04:10:39.794Z,78.09
2018-07-09T04:11:39.970Z,78.22
2018-07-09T04:12:40.155Z,78.22
2018-07-09T04:13:40.337Z,77.94
2018-07-09T04:14:40.523Z,77.65
2018-07-09T04:15:40.693Z,77.94
2018-07-09T04:16:40.871Z,78.51
2018-07-09T04:17:41.053Z,78.61
2018-07-09T04:18:41.231Z,78.19
2018-07-09T04:19:41.415Z,78.51
2018-07-09T04:20:41.605Z,78.32
2018-07-09T04:21:41.778Z,78.57
2018-07-09T04:22:41.958Z,78.22
2018-07-09T04:23:42.135Z,77.84
2018-07-09T04:24:42.311Z,76.48
2018-07-09T04:25:42.471Z,73.45
2018-07-09T04:26:42.683Z,71.82
2018-07-09T04:27:42.838Z,71.76
2018-07-09T04:28:43.020Z,71.28
2018-07-09T04:29:43.186Z,70.17
2018-07-09T04:30:43.360Z,68.08
2018-07-09T04:31:43.556Z,66.77
2018-07-09T04:32:43.736Z,66.55
2018-07-09T04:33:43.900Z,67.32
2018-07-09T04:34:44.105Z,66.97
2018-07-09T04:35:44.268Z,66.84
2018-07-09T04:36:44.438Z,67.61
2018-07-09T04:37:44.730Z,66.52
2018-07-09T04:38:44.804Z,64.34
2018-07-09T04:39:44.995Z,63.02
2018-07-09T04:40:45.168Z,62.32
2018-07-09T04:41:45.342Z,62.61
2018-07-09T04:42:45.517Z,63.83
2018-07-09T04:43:45.690Z,64.79
2018-07-09T04:44:45.896Z,63.83
2018-07-09T04:45:46.057Z,64.60
2018-07-09T04:46:46.241Z,65.27
2018-07-09T04:47:46.435Z,65.17
2018-07-09T04:48:46.615Z,64.25
2018-07-09T04:49:46.803Z,63.48
2018-07-09T04:50:46.984Z,62.19
2018-07-09T04:51:47.174Z,61.32
2018-07-09T04:52:47.360Z,60.84
2018-07-09T04:53:47.554Z,60.84
2018-07-09T04:54:47.746Z,60.75
2018-07-09T04:55:47.926Z,60.94
2018-07-09T04:56:48.108Z,59.84
2018-07-09T04:57:48.296Z,58.14
2018-07-09T04:58:48.483Z,56.72
2018-07-09T04:59:48.663Z,56.59
2018-07-09T05:00:48.849Z,58.11
2018-07-09T05:01:49.042Z,57.92
2018-07-09T05:02:49.242Z,57.62
2018-07-09T05:03:49.422Z,56.98
2018-07-09T05:04:49.605Z,56.40
2018-07-09T05:05:49.797Z,56.88
2018-07-09T05:06:49.983Z,55.01
2018-07-09T05:07:50.172Z,54.27
2018-07-09T05:08:50.367Z,52.84
2018-07-09T05:09:50.545Z,52.07
2018-07-09T05:10:50.741Z,52.26
2018-07-09T05:11:50.925Z,52.55
2018-07-09T05:12:51.106Z,52.23
2018-07-09T05:13:51.294Z,53.37
2018-07-09T05:14:51.485Z,53.37
2018-07-09T05:15:51.654Z,53.30
2018-07-09T05:16:51.844Z,53.39
2018-07-09T05:17:52.033Z,51.97
2018-07-09T05:18:52.248Z,51.95
2018-07-09T05:19:52.388Z,53.73
2018-07-09T05:20:52.577Z,54.96
2018-07-09T05:21:52.750Z,57.43
2018-07-09T05:22:52.934Z,56.14
2018-07-09T05:23:53.123Z,55.73
2018-07-09T05:24:53.307Z,56.27
2018-07-09T05:25:53.521Z,55.54
2018-07-09T05:26:53.658Z,54.43
2018-07-09T05:27:53.852Z,52.17
2018-07-09T05:28:54.031Z,51.85
2018-07-09T05:29:54.243Z,53.30
2018-07-09T05:30:54.423Z,52.26
2018-07-09T05:31:54.613Z,52.17
2018-07-09T05:32:54.802Z,50.93
2018-07-09T05:33:54.990Z,50.96
2018-07-09T05:34:55.177Z,54.96
2018-07-09T05:35:55.368Z,54.96
2018-07-09T05:36:55.557Z,54.05
2018-07-09T05:37:55.745Z,54.57
2018-07-09T05:38:55.937Z,55.89
2018-07-09T05:39:56.170Z,56.95
2018-07-09T05:40:56.322Z,56.59
2018-07-09T05:41:56.503Z,56.14
2018-07-09T05:42:56.680Z,55.34
2018-07-09T05:43:56.872Z,54.88
2018-07-09T05:44:57.062Z,54.88
2018-07-09T05:45:57.246Z,54.33
2018-07-09T05:46:57.514Z,52.81
2018-07-09T05:47:57.618Z,51.42
2018-07-09T05:48:57.813Z,49.44
2018-07-09T05:49:57.992Z,49.24
2018-07-09T05:50:58.170Z,48.76
2018-07-09T05:51:58.371Z,48.11
2018-07-09T05:52:58.543Z,47.81
2018-07-09T05:53:58.730Z,47.89
2018-07-09T05:54:58.909Z,47.99
2018-07-09T05:55:59.096Z,48.35
2018-07-09T05:56:59.274Z,48.08
2018-07-09T05:57:59.457Z,47.33
2018-07-09T05:58:59.672Z,47.41
2018-07-09T05:59:59.833Z,46.87
2018-07-09T06:01:00.032Z,46.22
2018-07-09T06:02:00.217Z,45.07
2018-07-09T06:03:00.428Z,44.96
2018-07-09T06:04:00.602Z,44.68
2018-07-09T06:05:00.759Z,44.59
2018-07-09T06:06:00.948Z,44.49
2018-07-09T06:07:01.139Z,43.91
2018-07-09T06:08:01.330Z,43.35
2018-07-09T06:09:01.518Z,43.06
2018-07-09T06:10:01.747Z,43.35
2018-07-09T06:11:01.934Z,42.96
2018-07-09T06:12:02.115Z,43.13
2018-07-09T06:13:02.304Z,45.49
2018-07-09T06:14:02.512Z,45.05
2018-07-09T06:15:02.697Z,44.47
2018-07-09T06:16:02.851Z,43.91
2018-07-09T06:17:03.040Z,44.37
2018-07-09T06:18:03.473Z,44.54
2018-07-09T06:19:03.403Z,44.35
2018-07-09T06:20:03.603Z,45.49
2018-07-09T06:21:03.771Z,45.22
2018-07-09T06:22:03.966Z,44.47
2018-07-09T06:23:04.165Z,43.60
2018-07-09T06:24:04.341Z,43.23
2018-07-09T06:25:04.566Z,43.70
2018-07-09T06:26:04.780Z,42.77
2018-07-09T06:27:04.949Z,41.72
2018-07-09T06:28:05.129Z,41.14
2018-07-09T06:29:05.322Z,40.58
2018-07-09T06:30:05.514Z,38.67
2018-07-09T06:31:05.693Z,38.96
2018-07-09T06:32:05.891Z,37.51
2018-07-09T06:33:06.087Z,37.41
2018-07-09T06:34:06.260Z,37.70
2018-07-09T06:35:06.451Z,38.37
2018-07-09T06:36:06.903Z,39.69
2018-07-09T06:37:06.813Z,40.54
2018-07-09T06:38:07.027Z,41.66
2018-07-09T06:39:07.424Z,43.38
2018-07-09T06:40:07.372Z,43.85
2018-07-09T06:41:07.574Z,44.23
2018-07-09T06:42:07.750Z,44.53
2018-07-09T06:43:07.962Z,44.40
2018-07-09T06:44:08.158Z,45.35
2018-07-09T06:45:08.364Z,46.78
2018-07-09T06:46:08.577Z,46.66
2018-07-09T06:47:08.741Z,48.01
2018-07-09T06:48:08.982Z,47.89
2018-07-09T06:49:09.113Z,48.30
2018-07-09T06:50:09.454Z,47.26
2018-07-09T06:51:09.455Z,46.80
2018-07-09T06:52:09.679Z,45.37
2018-07-09T06:53:09.837Z,45.51
2018-07-09T06:54:10.012Z,44.09
2018-07-09T06:55:10.190Z,43.13
2018-07-09T06:56:10.377Z,41.88
2018-07-09T06:57:10.578Z,41.99
2018-07-09T06:58:10.751Z,41.70
2018-07-09T06:59:10.929Z,40.83
2018-07-09T07:00:11.117Z,41.99
2018-07-09T07:01:11.294Z,41.33
2018-07-09T07:02:11.474Z,40.46
2018-07-09T07:03:11.707Z,40.41
2018-07-09T07:04:11.824Z,38.98
2018-07-09T07:05:12.005Z,38.03
2018-07-09T07:06:12.187Z,37.72
2018-07-09T07:07:12.364Z,38.46
2018-07-09T07:08:12.556Z,39.72
2018-07-09T07:09:12.902Z,38.87
2018-07-09T07:10:12.942Z,38.31
2018-07-09T07:11:13.147Z,38.50
2018-07-09T07:12:13.289Z,37.45
2018-07-09T07:13:13.477Z,37.74
2018-07-09T07:14:13.687Z,38.21
2018-07-09T07:15:13.831Z,38.70
2018-07-09T07:16:14.000Z,38.05
2018-07-09T07:17:14.203Z,37.37
2018-07-09T07:18:14.381Z,37.16
2018-07-09T07:19:14.576Z,37.54
2018-07-09T07:20:14.767Z,38.03
2018-07-09T07:21:14.948Z,37.35
2018-07-09T07:22:15.129Z,37.24
2018-07-09T07:23:15.334Z,37.64
2018-07-09T07:24:15.542Z,37.84
2018-07-09T07:25:15.730Z,39.06
2018-07-09T07:26:15.923Z,38.96
2018-07-09T07:27:16.099Z,38.77
2018-07-09T07:28:16.288Z,39.65
2018-07-09T07:29:16.477Z,39.16
2018-07-09T07:30:16.663Z,40.31
2018-07-09T07:31:16.850Z,40.21
2018-07-09T07:32:17.021Z,39.84
2018-07-09T07:33:17.289Z,40.39
2018-07-09T07:34:17.405Z,40.31
2018-07-09T07:35:17.598Z,40.11
2018-07-09T07:36:17.790Z,40.11
2018-07-09T07:37:17.997Z,39.75
2018-07-09T07:38:18.156Z,39.92
2018-07-09T07:39:18.403Z,39.92
2018-07-09T07:40:18.525Z,38.85
2018-07-09T07:41:18.726Z,39.14
2018-07-09T07:42:18.903Z,38.77
2018-07-09T07:43:19.089Z,38.19
2018-07-09T07:44:19.290Z,38.31
2018-07-09T07:45:19.483Z,38.11
2018-07-09T07:46:19.669Z,37.80
2018-07-09T07:47:19.859Z,39.51
2018-07-09T07:48:20.048Z,39.43
2018-07-09T07:49:20.240Z,39.70
2018-07-09T07:50:20.526Z,39.59
2018-07-09T07:51:20.618Z,39.41
2018-07-09T07:52:20.809Z,38.75
2018-07-09T07:53:21.000Z,38.85
2018-07-09T07:54:21.202Z,38.93
2018-07-09T07:55:21.378Z,38.56
2018-07-09T07:56:21.574Z,39.14
2018-07-09T07:57:21.762Z,38.85
2018-07-09T07:58:21.954Z,38.75
2018-07-09T07:59:22.142Z,39.04
2018-07-09T08:00:22.335Z,38.93
2018-07-09T08:01:22.528Z,38.93
2018-07-09T08:02:22.718Z,38.91
2018-07-09T08:03:22.900Z,38.56
2018-07-09T08:04:23.094Z,38.44
2018-07-09T08:05:23.277Z,38.07
2018-07-09T08:06:23.474Z,37.32
2018-07-09T08:07:23.656Z,38.07
2018-07-09T08:08:23.841Z,38.37
2018-07-09T08:09:24.131Z,37.49
2018-07-09T08:10:24.225Z,37.30
2018-07-09T08:11:47.727Z,37.04
2018-07-09T08:13:29.006Z,35.89
2018-07-09T08:14:24.971Z,35.02
2018-07-09T08:15:25.161Z,35.39
2018-07-09T08:16:25.352Z,36.15
2018-07-09T08:17:25.512Z,36.32
2018-07-09T08:18:25.730Z,37.39
2018-07-09T08:19:25.897Z,36.73
2018-07-09T08:20:26.117Z,35.10
2018-07-09T08:21:26.254Z,35.17
2018-07-09T08:22:26.440Z,35.96
2018-07-09T08:24:26.812Z,36.44
2018-07-09T08:25:27.093Z,36.15
2018-07-09T08:26:27.209Z,36.44
2018-07-09T08:27:27.389Z,36.16
2018-07-09T08:28:27.575Z,35.78
2018-07-09T08:29:27.754Z,35.50
2018-07-09T08:30:27.949Z,35.31
2018-07-09T08:31:28.409Z,35.11
2018-07-09T08:32:28.314Z,35.80
2018-07-09T08:33:28.504Z,35.60
2018-07-09T08:34:28.692Z,35.60
2018-07-09T08:35:28.877Z,35.03
2018-07-09T08:36:29.061Z,34.43
2018-07-09T08:37:29.255Z,35.11
2018-07-09T08:38:29.474Z,34.82
2018-07-09T08:39:29.648Z,34.82
2018-07-09T08:40:29.827Z,34.63
2018-07-09T08:41:30.006Z,34.50
2018-07-09T08:42:30.191Z,33.73
2018-07-09T08:43:30.381Z,33.53
2018-07-09T08:44:30.596Z,33.25
2018-07-09T08:45:30.776Z,32.39
2018-07-09T08:46:30.959Z,32.39
2018-07-09T08:47:31.237Z,33.17
2018-07-09T08:48:31.349Z,32.68
2018-07-09T08:49:31.542Z,32.78
2018-07-09T08:50:31.734Z,32.20
2018-07-09T08:51:31.919Z,33.06
2018-07-09T08:52:32.094Z,32.96
2018-07-09T08:53:32.276Z,32.28
2018-07-09T08:54:32.456Z,31.60
2018-07-09T08:55:32.673Z,32.26
2018-07-09T08:56:32.846Z,33.04
2018-07-09T08:57:33.022Z,32.35
2018-07-09T08:58:33.200Z,31.98
2018-07-09T08:59:33.383Z,32.47
2018-07-09T09:00:33.579Z,31.50
2018-07-09T09:01:33.741Z,30.51
2018-07-09T09:02:33.929Z,30.62
2018-07-09T09:03:34.114Z,31.01
2018-07-09T09:04:34.307Z,31.50
2018-07-09T09:05:34.463Z,31.79
2018-07-09T09:06:34.642Z,32.00
2018-07-09T09:07:34.820Z,32.00
2018-07-09T09:08:35.017Z,32.57
2018-07-09T09:09:35.196Z,33.72
2018-07-09T09:10:35.387Z,34.20
2018-07-09T09:11:35.575Z,33.54
2018-07-09T09:12:35.762Z,33.25
2018-07-09T09:13:35.946Z,33.15
2018-07-09T09:14:36.143Z,32.49
2018-07-09T09:15:36.303Z,31.98
2018-07-09T09:16:36.541Z,31.03
2018-07-09T09:17:36.648Z,30.62
2018-07-09T09:18:36.858Z,30.51
2018-07-09T09:19:37.037Z,29.93
2018-07-09T09:20:37.185Z,30.02
2018-07-09T09:21:37.367Z,30.32
2018-07-09T09:22:37.549Z,29.83
2018-07-09T09:23:37.722Z,29.64
2018-07-09T09:24:37.903Z,29.75
2018-07-09T09:25:38.211Z,30.14
2018-07-09T09:26:38.268Z,30.61
2018-07-09T09:27:38.441Z,30.02
2018-07-09T09:28:38.630Z,30.48
2018-07-09T09:29:38.777Z,31.92
2018-07-09T09:30:38.977Z,31.35
2018-07-09T09:31:39.260Z,29.02
2018-07-09T09:32:39.352Z,28.59
2018-07-09T09:33:39.531Z,29.17
2018-07-09T09:34:39.708Z,29.28
2018-07-09T09:35:39.913Z,28.14
2018-07-09T09:36:40.105Z,26.01
2018-07-09T09:37:40.300Z,25.73
2018-07-09T09:38:40.474Z,25.63
2018-07-09T09:39:40.657Z,25.63
2018-07-09T09:40:40.857Z,25.15
2018-07-09T09:41:41.046Z,25.05
2018-07-09T09:42:41.225Z,24.76
2018-07-09T09:43:41.408Z,25.14
2018-07-09T09:44:41.607Z,25.05
2018-07-09T09:45:41.816Z,24.18
2018-07-09T09:46:41.958Z,24.48
2018-07-09T09:47:42.165Z,24.68
2018-07-09T09:48:42.318Z,25.05
2018-07-09T09:49:42.516Z,25.14
2018-07-09T09:50:42.691Z,25.82
2018-07-09T09:51:42.874Z,25.92
2018-07-09T09:52:43.045Z,25.81
2018-07-09T09:53:43.216Z,25.24
2018-07-09T09:54:43.396Z,25.04
2018-07-09T09:55:43.647Z,25.04
2018-07-09T09:56:43.776Z,24.48
2018-07-09T09:57:43.942Z,25.14
2018-07-09T09:58:44.151Z,25.24
2018-07-09T09:59:44.342Z,25.70
2018-07-09T10:00:44.517Z,26.46
2018-07-09T10:01:44.694Z,27.72
2018-07-09T10:02:44.949Z,28.02
2018-07-09T10:03:45.126Z,27.82
2018-07-09T10:04:45.310Z,27.53
2018-07-09T10:05:45.483Z,26.75
2018-07-09T10:06:45.672Z,25.89
2018-07-09T10:07:45.853Z,25.03
2018-07-09T10:08:46.043Z,24.84
2018-07-09T10:09:46.231Z,25.62
2018-07-09T10:10:46.695Z,27.06
2018-07-09T10:11:46.526Z,27.66
2018-07-09T10:12:46.710Z,27.37
2018-07-09T10:13:46.899Z,27.47
2018-07-09T10:14:47.116Z,27.36
2018-07-09T10:15:47.263Z,27.25
2018-07-09T10:16:47.474Z,26.48
2018-07-09T10:17:47.625Z,26.49
2018-07-09T10:18:47.815Z,24.93
2018-07-09T10:19:48.007Z,25.23
2018-07-09T10:20:48.197Z,25.63
2018-07-09T10:21:48.365Z,25.82
2018-07-09T10:22:48.585Z,24.77
2018-07-09T10:23:48.745Z,24.67
2018-07-09T10:24:48.915Z,24.77
2018-07-09T10:25:49.105Z,25.07
2018-07-09T10:26:49.284Z,24.97
2018-07-09T10:27:49.472Z,25.74
2018-07-09T10:28:49.663Z,26.03
2018-07-09T10:29:49.850Z,26.12
2018-07-09T10:30:50.078Z,25.93
2018-07-09T10:31:50.269Z,26.50
2018-07-09T10:32:50.462Z,27.37
2018-07-09T10:33:50.627Z,27.87
2018-07-09T10:34:50.820Z,27.21
2018-07-09T10:35:50.981Z,27.29
2018-07-09T10:36:51.175Z,27.69
2018-07-09T10:37:51.340Z,27.01
2018-07-09T10:38:51.524Z,25.95
2018-07-09T10:39:51.696Z,25.84
2018-07-09T10:40:51.879Z,26.70
2018-07-09T10:41:52.071Z,27.97
2018-07-09T10:42:52.246Z,27.58
2018-07-09T10:43:52.435Z,27.58
2018-07-09T10:44:52.619Z,27.50
2018-07-09T10:45:52.785Z,27.79
2018-07-09T10:46:52.987Z,26.92
2018-07-09T10:47:53.189Z,27.31
2018-07-09T10:48:53.356Z,27.40
2018-07-09T10:49:53.546Z,27.69
2018-07-09T10:50:53.724Z,28.44
2018-07-09T10:51:53.921Z,28.93
2018-07-09T10:52:54.100Z,28.93
2018-07-09T10:53:54.296Z,28.74
2018-07-09T10:54:54.491Z,28.72
2018-07-09T10:55:54.704Z,28.05
2018-07-09T10:56:54.840Z,28.15
2018-07-09T10:57:55.025Z,28.54
2018-07-09T10:58:55.197Z,29.02
2018-07-09T10:59:55.388Z,28.74
2018-07-09T11:00:55.578Z,29.01
2018-07-09T11:01:55.755Z,29.50
2018-07-09T11:02:55.929Z,29.11
2018-07-09T11:03:56.139Z,29.40
2018-07-09T11:04:56.330Z,29.02
2018-07-09T11:05:56.489Z,28.72
2018-07-09T11:06:56.706Z,29.12
2018-07-09T11:07:56.877Z,29.60
2018-07-09T11:08:57.274Z,29.79
2018-07-09T11:09:57.221Z,30.09
2018-07-09T11:10:57.405Z,29.32
2018-07-09T11:11:57.590Z,29.24
2018-07-09T11:12:57.783Z,28.65
2018-07-09T11:13:57.936Z,27.69
2018-07-09T11:14:58.132Z,28.17
2018-07-09T11:15:58.571Z,28.64
2018-07-09T11:16:58.541Z,28.54
2018-07-09T11:17:58.722Z,29.02
2018-07-09T11:19:59.078Z,28.85
2018-07-09T11:20:59.262Z,28.83
2018-07-09T11:21:59.444Z,28.96
2018-07-09T11:22:59.624Z,29.22
2018-07-09T11:23:59.817Z,30.00
2018-07-09T11:25:00.017Z,30.09
2018-07-09T11:26:00.195Z,30.38
2018-07-09T11:27:00.376Z,30.59
2018-07-09T11:28:00.590Z,30.50
2018-07-09T11:29:00.762Z,30.77
2018-07-09T11:30:00.950Z,31.07
2018-07-09T11:31:01.139Z,31.35
2018-07-09T11:32:01.326Z,31.26
2018-07-09T11:33:01.511Z,31.45
2018-07-09T11:34:01.688Z,31.44
2018-07-09T11:35:01.895Z,31.81
2018-07-09T11:36:02.085Z,32.31
2018-07-09T11:37:02.223Z,32.02
2018-07-09T11:38:02.427Z,31.94
2018-07-09T11:39:02.625Z,32.21
2018-07-09T11:40:02.855Z,32.31
2018-07-09T11:41:03.017Z,32.32
2018-07-09T11:42:03.259Z,31.57
2018-07-09T11:43:03.407Z,31.29
2018-07-09T11:44:03.601Z,31.37
2018-07-09T11:45:03.771Z,31.74
2018-07-09T11:46:03.951Z,32.39
2018-07-09T11:47:04.130Z,32.89
2018-07-09T11:48:04.313Z,33.47
2018-07-09T11:49:04.498Z,33.29
2018-07-09T11:50:04.688Z,33.76
2018-07-09T11:51:04.874Z,34.44
2018-07-09T11:52:05.057Z,35.57
2018-07-09T11:53:05.230Z,35.69
2018-07-09T11:54:05.436Z,35.61
2018-07-09T11:55:05.608Z,34.17
2018-07-09T11:56:05.801Z,33.59
2018-07-09T11:57:05.986Z,33.67
2018-07-09T11:58:06.172Z,33.78
2018-07-09T11:59:06.358Z,33.90
2018-07-09T12:00:06.540Z,34.48
2018-07-09T12:01:07.479Z,34.28
2018-07-09T12:02:06.940Z,33.90
2018-07-09T12:03:07.109Z,34.46
2018-07-09T12:04:07.295Z,34.19
2018-07-09T12:05:07.476Z,34.09
2018-07-09T12:06:07.649Z,34.28
2018-07-09T12:07:07.834Z,33.99
2018-07-09T12:08:08.009Z,34.66
2018-07-09T12:09:08.210Z,34.56
2018-07-09T12:10:08.356Z,33.29
2018-07-09T12:11:08.540Z,33.98
2018-07-09T12:12:08.731Z,34.56
2018-07-09T12:13:08.921Z,34.09
2018-07-09T12:14:09.099Z,34.48
2018-07-09T12:15:09.257Z,34.48
2018-07-09T12:16:09.445Z,34.58
2018-07-09T12:17:09.618Z,34.01
2018-07-09T12:18:09.789Z,34.58
2018-07-09T12:19:09.972Z,34.38
2018-07-09T12:20:10.149Z,35.33
2018-07-09T12:21:10.346Z,35.72
2018-07-09T12:22:10.547Z,35.72
2018-07-09T12:23:10.711Z,35.63
2018-07-09T12:24:10.905Z,35.06
2018-07-09T12:25:11.089Z,35.06
2018-07-09T12:26:11.303Z,35.47
2018-07-09T12:27:11.455Z,34.98
2018-07-09T12:28:11.631Z,35.08
2018-07-09T12:29:12.020Z,35.37
2018-07-09T12:30:12.011Z,35.76
2018-07-09T12:31:12.446Z,36.04
2018-07-09T12:32:12.386Z,36.32
2018-07-09T12:33:12.569Z,36.61
2018-07-09T12:34:12.749Z,36.60
2018-07-09T12:36:13.195Z,38.42
2018-07-09T12:37:13.303Z,37.84
2018-07-09T12:38:13.489Z,37.84
2018-07-09T12:39:13.668Z,37.35
2018-07-09T12:40:13.859Z,37.37
2018-07-09T12:41:14.038Z,37.96
2018-07-09T12:42:14.221Z,37.39
2018-07-09T12:43:14.378Z,37.30
2018-07-09T12:44:14.552Z,37.49
2018-07-09T12:45:14.753Z,37.28
2018-07-09T12:46:14.935Z,38.81
2018-07-09T12:47:15.142Z,38.42
2018-07-09T12:48:15.318Z,37.96
2018-07-09T12:49:15.509Z,37.66
2018-07-09T12:50:15.709Z,37.37
2018-07-09T12:51:15.889Z,37.47
2018-07-09T12:52:16.074Z,37.28
2018-07-09T12:53:16.243Z,37.39
2018-07-09T12:54:16.446Z,36.73
2018-07-09T12:55:16.615Z,36.32
2018-07-09T12:56:16.795Z,36.52
2018-07-09T12:57:16.974Z,36.81
2018-07-09T12:58:17.151Z,37.30
2018-07-09T12:59:17.350Z,37.32
2018-07-09T13:00:17.525Z,36.93